sensor_id;sensor_type;location;lat;lon;timestamp;temperature;humidity
42031;DHT22;27709;52.036;5.906;2022-08-01T00:00:29;20.40;99.90
42031;DHT22;27709;52.036;5.906;2022-08-01T00:02:54;20.30;99.90
42031;DHT22;27709;52.036;5.906;2022-08-01T00:05:20;20.30;99.90
42031;DHT22;27709;52.036;5.906;2022-08-01T00:07:45;20.30;99.90
42031;DHT22;27709;52.036;5.906;2022-08-01T00:10:13;20.30;99.90
42031;DHT22;27709;52.036;5.906;2022-08-01T00:12:39;20.30;99.90
42031;DHT22;27709;52.036;5.906;2022-08-01T00:15:07;20.30;99.90
42031;DHT22;27709;52.036;5.906;2022-08-01T00:17:33;20.20;99.90
42031;DHT22;27709;52.036;5.906;2022-08-01T00:19:58;20.20;99.90
42031;DHT22;27709;52.036;5.906;2022-08-01T00:22:24;20.20;99.90
42031;DHT22;27709;52.036;5.906;2022-08-01T00:24:50;20.10;99.90
42031;DHT22;27709;52.036;5.906;2022-08-01T00:27:15;20.10;99.90
42031;DHT22;27709;52.036;5.906;2022-08-01T00:29:41;20.10;99.90
42031;DHT22;27709;52.036;5.906;2022-08-01T00:32:07;20.10;99.90
42031;DHT22;27709;52.036;5.906;2022-08-01T00:34:33;20.10;99.90
42031;DHT22;27709;52.036;5.906;2022-08-01T00:36:58;20.10;99.90
42031;DHT22;27709;52.036;5.906;2022-08-01T00:39:24;20.10;99.90
42031;DHT22;27709;52.036;5.906;2022-08-01T00:41:49;20.10;99.90
42031;DHT22;27709;52.036;5.906;2022-08-01T00:44:15;20.10;99.90
42031;DHT22;27709;52.036;5.906;2022-08-01T00:46:41;20.10;99.90
42031;DHT22;27709;52.036;5.906;2022-08-01T00:49:06;20.10;99.90
42031;DHT22;27709;52.036;5.906;2022-08-01T00:51:33;20.10;99.90
42031;DHT22;27709;52.036;5.906;2022-08-01T00:53:59;20.20;99.90
42031;DHT22;27709;52.036;5.906;2022-08-01T00:56:26;20.10;99.90
42031;DHT22;27709;52.036;5.906;2022-08-01T00:58:53;20.10;99.90
42031;DHT22;27709;52.036;5.906;2022-08-01T01:01:19;20.10;99.90
42031;DHT22;27709;52.036;5.906;2022-08-01T01:03:47;20.10;99.90
42031;DHT22;27709;52.036;5.906;2022-08-01T01:12:29;20.10;99.90
42031;DHT22;27709;52.036;5.906;2022-08-01T01:15:06;20.00;99.90
42031;DHT22;27709;52.036;5.906;2022-08-01T01:17:47;20.00;99.90
42031;DHT22;27709;52.036;5.906;2022-08-01T01:20:14;20.10;99.90
42031;DHT22;27709;52.036;5.906;2022-08-01T01:22:46;20.10;99.90
42031;DHT22;27709;52.036;5.906;2022-08-01T01:31:02;20.10;99.90
42031;DHT22;27709;52.036;5.906;2022-08-01T01:33:41;20.00;99.90
42031;DHT22;27709;52.036;5.906;2022-08-01T01:36:14;20.00;99.90
42031;DHT22;27709;52.036;5.906;2022-08-01T01:38:44;20.00;99.90
42031;DHT22;27709;52.036;5.906;2022-08-01T01:41:12;20.00;99.90
42031;DHT22;27709;52.036;5.906;2022-08-01T01:43:40;19.90;99.90
42031;DHT22;27709;52.036;5.906;2022-08-01T01:46:07;19.90;99.90
42031;DHT22;27709;52.036;5.906;2022-08-01T01:48:34;19.90;99.90
42031;DHT22;27709;52.036;5.906;2022-08-01T01:51:01;19.90;99.90
42031;DHT22;27709;52.036;5.906;2022-08-01T01:53:28;19.90;99.90
42031;DHT22;27709;52.036;5.906;2022-08-01T01:55:57;19.90;99.90
42031;DHT22;27709;52.036;5.906;2022-08-01T01:58:23;19.90;99.90
42031;DHT22;27709;52.036;5.906;2022-08-01T02:00:52;19.90;99.90
42031;DHT22;27709;52.036;5.906;2022-08-01T02:03:18;19.90;99.90
42031;DHT22;27709;52.036;5.906;2022-08-01T02:05:45;19.80;99.90
42031;DHT22;27709;52.036;5.906;2022-08-01T02:08:15;19.80;99.90
42031;DHT22;27709;52.036;5.906;2022-08-01T02:10:41;19.80;99.90
42031;DHT22;27709;52.036;5.906;2022-08-01T02:13:29;19.80;99.90
42031;DHT22;27709;52.036;5.906;2022-08-01T02:15:54;19.80;99.90
42031;DHT22;27709;52.036;5.906;2022-08-01T02:18:20;19.80;99.90
42031;DHT22;27709;52.036;5.906;2022-08-01T02:20:46;19.80;99.90
42031;DHT22;27709;52.036;5.906;2022-08-01T02:23:13;19.80;99.90
42031;DHT22;27709;52.036;5.906;2022-08-01T02:25:50;19.80;99.90
42031;DHT22;27709;52.036;5.906;2022-08-01T02:28:28;19.80;99.90
42031;DHT22;27709;52.036;5.906;2022-08-01T02:31:03;19.80;99.90
42031;DHT22;27709;52.036;5.906;2022-08-01T02:33:41;19.80;99.90
42031;DHT22;27709;52.036;5.906;2022-08-01T02:36:08;19.80;99.90
42031;DHT22;27709;52.036;5.906;2022-08-01T02:38:37;19.80;99.90
42031;DHT22;27709;52.036;5.906;2022-08-01T02:41:08;19.80;99.90
42031;DHT22;27709;52.036;5.906;2022-08-01T02:43:37;19.80;99.90
42031;DHT22;27709;52.036;5.906;2022-08-01T02:46:04;19.80;99.90
42031;DHT22;27709;52.036;5.906;2022-08-01T02:48:33;19.80;99.90
42031;DHT22;27709;52.036;5.906;2022-08-01T02:51:01;19.80;99.90
42031;DHT22;27709;52.036;5.906;2022-08-01T02:53:31;19.80;99.90
42031;DHT22;27709;52.036;5.906;2022-08-01T02:55:58;19.80;99.90
42031;DHT22;27709;52.036;5.906;2022-08-01T02:58:25;19.80;99.90
42031;DHT22;27709;52.036;5.906;2022-08-01T03:00:51;19.80;99.90
42031;DHT22;27709;52.036;5.906;2022-08-01T03:03:18;19.80;99.90
42031;DHT22;27709;52.036;5.906;2022-08-01T03:05:44;19.80;99.90
42031;DHT22;27709;52.036;5.906;2022-08-01T03:08:11;19.80;99.90
42031;DHT22;27709;52.036;5.906;2022-08-01T03:10:40;19.80;99.90
42031;DHT22;27709;52.036;5.906;2022-08-01T03:13:10;19.80;99.90
42031;DHT22;27709;52.036;5.906;2022-08-01T03:15:39;19.80;99.90
42031;DHT22;27709;52.036;5.906;2022-08-01T03:18:07;19.70;99.90
42031;DHT22;27709;52.036;5.906;2022-08-01T03:38:39;19.60;99.90
42031;DHT22;27709;52.036;5.906;2022-08-01T03:41:11;19.60;99.90
42031;DHT22;27709;52.036;5.906;2022-08-01T03:43:41;19.60;99.90
42031;DHT22;27709;52.036;5.906;2022-08-01T03:46:13;19.60;99.90
42031;DHT22;27709;52.036;5.906;2022-08-01T03:48:43;19.50;99.90
42031;DHT22;27709;52.036;5.906;2022-08-01T03:51:14;19.50;99.90
42031;DHT22;27709;52.036;5.906;2022-08-01T03:53:42;19.50;99.90
42031;DHT22;27709;52.036;5.906;2022-08-01T03:56:10;19.50;99.90
42031;DHT22;27709;52.036;5.906;2022-08-01T03:58:39;19.50;99.90
42031;DHT22;27709;52.036;5.906;2022-08-01T04:01:06;19.60;99.90
42031;DHT22;27709;52.036;5.906;2022-08-01T04:03:34;19.50;99.90
42031;DHT22;27709;52.036;5.906;2022-08-01T04:06:06;19.60;99.90
42031;DHT22;27709;52.036;5.906;2022-08-01T04:08:38;19.60;99.90
42031;DHT22;27709;52.036;5.906;2022-08-01T04:11:04;19.60;99.90
42031;DHT22;27709;52.036;5.906;2022-08-01T04:13:32;19.60;99.90
42031;DHT22;27709;52.036;5.906;2022-08-01T04:15:58;19.60;99.90
42031;DHT22;27709;52.036;5.906;2022-08-01T04:18:25;19.50;99.90
42031;DHT22;27709;52.036;5.906;2022-08-01T04:20:50;19.60;99.90
42031;DHT22;27709;52.036;5.906;2022-08-01T04:23:18;19.60;99.90
42031;DHT22;27709;52.036;5.906;2022-08-01T04:25:51;19.60;99.90
42031;DHT22;27709;52.036;5.906;2022-08-01T04:28:21;19.60;99.90
42031;DHT22;27709;52.036;5.906;2022-08-01T04:30:50;19.60;99.90
42031;DHT22;27709;52.036;5.906;2022-08-01T04:34:02;19.60;99.90
42031;DHT22;27709;52.036;5.906;2022-08-01T04:36:47;19.70;99.90
42031;DHT22;27709;52.036;5.906;2022-08-01T04:44:41;19.70;99.90
42031;DHT22;27709;52.036;5.906;2022-08-01T04:47:09;19.70;99.90
42031;DHT22;27709;52.036;5.906;2022-08-01T04:49:35;19.80;99.90
42031;DHT22;27709;52.036;5.906;2022-08-01T04:52:17;19.80;99.90
42031;DHT22;27709;52.036;5.906;2022-08-01T04:54:55;19.80;99.90
42031;DHT22;27709;52.036;5.906;2022-08-01T04:57:21;19.80;99.90
42031;DHT22;27709;52.036;5.906;2022-08-01T04:59:49;19.90;99.90
42031;DHT22;27709;52.036;5.906;2022-08-01T05:05:05;19.90;99.90
42031;DHT22;27709;52.036;5.906;2022-08-01T05:07:32;19.90;99.90
42031;DHT22;27709;52.036;5.906;2022-08-01T05:09:58;19.90;99.90
42031;DHT22;27709;52.036;5.906;2022-08-01T05:17:48;19.90;99.90
42031;DHT22;27709;52.036;5.906;2022-08-01T05:27:52;19.90;99.90
42031;DHT22;27709;52.036;5.906;2022-08-01T05:30:18;19.90;99.90
42031;DHT22;27709;52.036;5.906;2022-08-01T05:35:23;19.90;99.90
42031;DHT22;27709;52.036;5.906;2022-08-01T05:37:50;19.90;99.90
42031;DHT22;27709;52.036;5.906;2022-08-01T05:55:23;19.90;99.90
42031;DHT22;27709;52.036;5.906;2022-08-01T05:57:49;20.00;99.90
42031;DHT22;27709;52.036;5.906;2022-08-01T06:00:14;20.10;99.90
42031;DHT22;27709;52.036;5.906;2022-08-01T06:02:44;20.10;99.90
42031;DHT22;27709;52.036;5.906;2022-08-01T06:05:16;20.10;99.90
42031;DHT22;27709;52.036;5.906;2022-08-01T06:07:43;20.10;99.90
42031;DHT22;27709;52.036;5.906;2022-08-01T06:10:10;20.10;99.90
42031;DHT22;27709;52.036;5.906;2022-08-01T06:12:36;20.00;99.90
42031;DHT22;27709;52.036;5.906;2022-08-01T06:15:05;20.00;99.90
42031;DHT22;27709;52.036;5.906;2022-08-01T06:17:31;20.00;99.90
42031;DHT22;27709;52.036;5.906;2022-08-01T06:19:57;20.00;99.90
42031;DHT22;27709;52.036;5.906;2022-08-01T06:22:22;20.00;99.90
42031;DHT22;27709;52.036;5.906;2022-08-01T06:24:48;20.10;99.90
42031;DHT22;27709;52.036;5.906;2022-08-01T06:27:14;20.00;99.90
42031;DHT22;27709;52.036;5.906;2022-08-01T06:29:39;20.10;99.90
42031;DHT22;27709;52.036;5.906;2022-08-01T06:32:05;20.10;99.90
42031;DHT22;27709;52.036;5.906;2022-08-01T06:34:32;20.10;99.90
42031;DHT22;27709;52.036;5.906;2022-08-01T06:36:58;20.20;99.90
42031;DHT22;27709;52.036;5.906;2022-08-01T06:39:24;20.30;99.90
42031;DHT22;27709;52.036;5.906;2022-08-01T06:41:50;20.40;99.90
42031;DHT22;27709;52.036;5.906;2022-08-01T06:44:15;20.50;99.90
42031;DHT22;27709;52.036;5.906;2022-08-01T06:46:41;20.60;99.90
42031;DHT22;27709;52.036;5.906;2022-08-01T06:49:07;20.70;99.90
42031;DHT22;27709;52.036;5.906;2022-08-01T06:51:32;20.80;99.90
42031;DHT22;27709;52.036;5.906;2022-08-01T06:53:58;20.80;99.90
42031;DHT22;27709;52.036;5.906;2022-08-01T06:56:23;20.90;99.90
42031;DHT22;27709;52.036;5.906;2022-08-01T06:58:50;20.90;99.90
42031;DHT22;27709;52.036;5.906;2022-08-01T07:01:16;21.00;99.90
42031;DHT22;27709;52.036;5.906;2022-08-01T07:03:41;21.00;99.90
42031;DHT22;27709;52.036;5.906;2022-08-01T07:06:07;21.00;99.90
42031;DHT22;27709;52.036;5.906;2022-08-01T07:08:33;21.00;99.90
42031;DHT22;27709;52.036;5.906;2022-08-01T07:10:58;21.00;99.90
42031;DHT22;27709;52.036;5.906;2022-08-01T07:13:28;20.90;99.90
42031;DHT22;27709;52.036;5.906;2022-08-01T07:15:56;21.00;99.90
42031;DHT22;27709;52.036;5.906;2022-08-01T07:18:22;21.10;99.90
42031;DHT22;27709;52.036;5.906;2022-08-01T07:20:49;21.10;99.90
42031;DHT22;27709;52.036;5.906;2022-08-01T07:23:15;21.20;99.90
42031;DHT22;27709;52.036;5.906;2022-08-01T07:25:42;21.20;99.90
42031;DHT22;27709;52.036;5.906;2022-08-01T07:28:07;21.20;99.90
42031;DHT22;27709;52.036;5.906;2022-08-01T07:30:34;21.30;99.90
42031;DHT22;27709;52.036;5.906;2022-08-01T07:33:00;21.30;99.90
42031;DHT22;27709;52.036;5.906;2022-08-01T07:35:25;21.30;99.90
42031;DHT22;27709;52.036;5.906;2022-08-01T07:37:51;21.30;99.90
42031;DHT22;27709;52.036;5.906;2022-08-01T07:40:18;21.20;99.90
42031;DHT22;27709;52.036;5.906;2022-08-01T07:42:44;21.10;99.90
42031;DHT22;27709;52.036;5.906;2022-08-01T07:45:10;21.00;99.90
42031;DHT22;27709;52.036;5.906;2022-08-01T07:47:36;20.90;99.90
42031;DHT22;27709;52.036;5.906;2022-08-01T07:50:03;20.80;99.90
42031;DHT22;27709;52.036;5.906;2022-08-01T07:52:29;20.80;99.90
42031;DHT22;27709;52.036;5.906;2022-08-01T07:54:56;20.70;99.90
42031;DHT22;27709;52.036;5.906;2022-08-01T07:57:22;20.60;99.90
42031;DHT22;27709;52.036;5.906;2022-08-01T07:59:49;20.50;99.90
42031;DHT22;27709;52.036;5.906;2022-08-01T08:02:14;20.50;99.90
42031;DHT22;27709;52.036;5.906;2022-08-01T08:04:40;20.60;99.90
42031;DHT22;27709;52.036;5.906;2022-08-01T08:07:06;20.60;99.90
42031;DHT22;27709;52.036;5.906;2022-08-01T08:09:31;20.70;99.90
42031;DHT22;27709;52.036;5.906;2022-08-01T08:11:57;20.70;99.90
42031;DHT22;27709;52.036;5.906;2022-08-01T08:14:22;20.70;99.90
42031;DHT22;27709;52.036;5.906;2022-08-01T08:16:49;20.80;99.90
42031;DHT22;27709;52.036;5.906;2022-08-01T08:19:15;20.90;99.90
42031;DHT22;27709;52.036;5.906;2022-08-01T08:21:41;21.00;99.90
42031;DHT22;27709;52.036;5.906;2022-08-01T08:24:08;21.10;99.90
42031;DHT22;27709;52.036;5.906;2022-08-01T08:26:51;21.10;99.90
42031;DHT22;27709;52.036;5.906;2022-08-01T08:29:17;21.00;99.90
42031;DHT22;27709;52.036;5.906;2022-08-01T08:31:42;20.90;99.90
42031;DHT22;27709;52.036;5.906;2022-08-01T08:34:08;20.80;99.90
42031;DHT22;27709;52.036;5.906;2022-08-01T08:36:34;20.80;99.90
42031;DHT22;27709;52.036;5.906;2022-08-01T08:39:00;20.80;99.90
42031;DHT22;27709;52.036;5.906;2022-08-01T08:41:26;20.70;99.90
42031;DHT22;27709;52.036;5.906;2022-08-01T08:43:51;20.70;99.90
42031;DHT22;27709;52.036;5.906;2022-08-01T08:46:22;20.70;99.90
42031;DHT22;27709;52.036;5.906;2022-08-01T08:49:13;20.50;99.90
42031;DHT22;27709;52.036;5.906;2022-08-01T08:51:48;20.40;99.90
42031;DHT22;27709;52.036;5.906;2022-08-01T08:54:16;20.40;99.90
42031;DHT22;27709;52.036;5.906;2022-08-01T08:56:43;20.30;99.90
42031;DHT22;27709;52.036;5.906;2022-08-01T08:59:13;20.30;99.90
42031;DHT22;27709;52.036;5.906;2022-08-01T09:01:40;20.30;99.90
42031;DHT22;27709;52.036;5.906;2022-08-01T09:04:07;20.30;99.90
42031;DHT22;27709;52.036;5.906;2022-08-01T09:06:33;20.40;99.90
42031;DHT22;27709;52.036;5.906;2022-08-01T09:08:59;20.40;99.90
42031;DHT22;27709;52.036;5.906;2022-08-01T09:11:24;20.50;99.90
42031;DHT22;27709;52.036;5.906;2022-08-01T09:19:16;20.60;99.90
42031;DHT22;27709;52.036;5.906;2022-08-01T09:21:57;20.60;99.90
42031;DHT22;27709;52.036;5.906;2022-08-01T09:24:27;20.60;99.90
42031;DHT22;27709;52.036;5.906;2022-08-01T09:26:54;20.60;99.90
42031;DHT22;27709;52.036;5.906;2022-08-01T09:29:25;20.60;99.90
42031;DHT22;27709;52.036;5.906;2022-08-01T09:31:51;20.60;99.90
42031;DHT22;27709;52.036;5.906;2022-08-01T09:34:28;20.60;99.90
42031;DHT22;27709;52.036;5.906;2022-08-01T09:36:57;20.70;99.90
42031;DHT22;27709;52.036;5.906;2022-08-01T09:39:26;20.80;99.90
42031;DHT22;27709;52.036;5.906;2022-08-01T09:41:55;20.90;99.90
42031;DHT22;27709;52.036;5.906;2022-08-01T09:44:42;21.00;99.90
42031;DHT22;27709;52.036;5.906;2022-08-01T09:47:09;21.00;99.90
42031;DHT22;27709;52.036;5.906;2022-08-01T09:49:37;21.10;99.90
42031;DHT22;27709;52.036;5.906;2022-08-01T09:52:19;21.10;99.90
42031;DHT22;27709;52.036;5.906;2022-08-01T09:55:00;21.30;99.90
42031;DHT22;27709;52.036;5.906;2022-08-01T09:57:28;21.40;99.90
42031;DHT22;27709;52.036;5.906;2022-08-01T09:59:56;21.40;99.90
42031;DHT22;27709;52.036;5.906;2022-08-01T10:02:36;21.50;99.90
42031;DHT22;27709;52.036;5.906;2022-08-01T10:05:04;21.50;99.90
42031;DHT22;27709;52.036;5.906;2022-08-01T10:07:31;21.50;99.90
42031;DHT22;27709;52.036;5.906;2022-08-01T10:10:14;21.60;99.90
42031;DHT22;27709;52.036;5.906;2022-08-01T10:12:41;21.60;99.90
42031;DHT22;27709;52.036;5.906;2022-08-01T10:15:08;21.60;99.90
42031;DHT22;27709;52.036;5.906;2022-08-01T10:17:34;21.70;99.90
42031;DHT22;27709;52.036;5.906;2022-08-01T10:20:03;21.70;99.90
42031;DHT22;27709;52.036;5.906;2022-08-01T10:22:30;21.60;99.90
42031;DHT22;27709;52.036;5.906;2022-08-01T10:25:00;21.60;99.90
42031;DHT22;27709;52.036;5.906;2022-08-01T10:27:30;21.60;99.90
42031;DHT22;27709;52.036;5.906;2022-08-01T10:29:59;21.50;99.90
42031;DHT22;27709;52.036;5.906;2022-08-01T10:32:32;21.40;99.90
42031;DHT22;27709;52.036;5.906;2022-08-01T10:34:59;21.40;99.90
42031;DHT22;27709;52.036;5.906;2022-08-01T10:37:25;21.30;99.90
42031;DHT22;27709;52.036;5.906;2022-08-01T10:39:51;21.30;99.90
42031;DHT22;27709;52.036;5.906;2022-08-01T10:42:18;21.30;99.90
42031;DHT22;27709;52.036;5.906;2022-08-01T10:44:45;21.40;99.90
42031;DHT22;27709;52.036;5.906;2022-08-01T10:47:14;21.50;99.90
42031;DHT22;27709;52.036;5.906;2022-08-01T10:49:51;21.60;99.90
42031;DHT22;27709;52.036;5.906;2022-08-01T10:52:18;21.80;99.90
42031;DHT22;27709;52.036;5.906;2022-08-01T10:54:44;22.00;99.90
42031;DHT22;27709;52.036;5.906;2022-08-01T10:57:10;22.30;99.90
42031;DHT22;27709;52.036;5.906;2022-08-01T10:59:51;22.50;99.90
42031;DHT22;27709;52.036;5.906;2022-08-01T11:02:38;22.60;99.90
42031;DHT22;27709;52.036;5.906;2022-08-01T11:05:21;22.80;99.90
42031;DHT22;27709;52.036;5.906;2022-08-01T11:07:52;23.00;99.20
42031;DHT22;27709;52.036;5.906;2022-08-01T11:10:58;23.20;98.30
42031;DHT22;27709;52.036;5.906;2022-08-01T11:14:17;23.30;98.30
42031;DHT22;27709;52.036;5.906;2022-08-01T11:28:42;23.20;97.30
42031;DHT22;27709;52.036;5.906;2022-08-01T11:41:28;23.20;97.50
42031;DHT22;27709;52.036;5.906;2022-08-01T11:44:16;23.30;97.00
42031;DHT22;27709;52.036;5.906;2022-08-01T11:47:05;23.40;96.80
42031;DHT22;27709;52.036;5.906;2022-08-01T11:52:17;23.40;97.10
42031;DHT22;27709;52.036;5.906;2022-08-01T11:55:07;23.40;96.80
42031;DHT22;27709;52.036;5.906;2022-08-01T11:57:37;23.40;96.40
42031;DHT22;27709;52.036;5.906;2022-08-01T12:00:15;23.50;96.00
42031;DHT22;27709;52.036;5.906;2022-08-01T12:02:41;23.50;96.20
42031;DHT22;27709;52.036;5.906;2022-08-01T12:05:09;23.50;96.00
42031;DHT22;27709;52.036;5.906;2022-08-01T12:07:36;23.50;96.00
42031;DHT22;27709;52.036;5.906;2022-08-01T12:10:07;23.40;95.90
42031;DHT22;27709;52.036;5.906;2022-08-01T12:12:34;23.40;95.60
42031;DHT22;27709;52.036;5.906;2022-08-01T12:15:03;23.40;95.80
42031;DHT22;27709;52.036;5.906;2022-08-01T12:17:39;23.40;95.60
42031;DHT22;27709;52.036;5.906;2022-08-01T12:20:08;23.40;95.70
42031;DHT22;27709;52.036;5.906;2022-08-01T12:22:34;23.50;95.90
42031;DHT22;27709;52.036;5.906;2022-08-01T12:25:08;23.50;95.80
42031;DHT22;27709;52.036;5.906;2022-08-01T12:27:35;23.50;95.80
42031;DHT22;27709;52.036;5.906;2022-08-01T12:30:03;23.50;95.30
42031;DHT22;27709;52.036;5.906;2022-08-01T12:32:32;23.60;94.70
42031;DHT22;27709;52.036;5.906;2022-08-01T12:35:04;23.50;94.80
42031;DHT22;27709;52.036;5.906;2022-08-01T12:37:30;23.40;94.80
42031;DHT22;27709;52.036;5.906;2022-08-01T12:39:56;23.30;94.60
42031;DHT22;27709;52.036;5.906;2022-08-01T12:42:22;23.30;94.20
42031;DHT22;27709;52.036;5.906;2022-08-01T12:44:50;23.40;94.70
42031;DHT22;27709;52.036;5.906;2022-08-01T12:47:18;23.60;95.20
42031;DHT22;27709;52.036;5.906;2022-08-01T12:49:46;23.70;94.90
42031;DHT22;27709;52.036;5.906;2022-08-01T12:52:12;23.90;94.70
42031;DHT22;27709;52.036;5.906;2022-08-01T12:55:16;23.90;94.20
42031;DHT22;27709;52.036;5.906;2022-08-01T12:57:45;23.90;93.70
42031;DHT22;27709;52.036;5.906;2022-08-01T13:00:18;23.90;93.40
42031;DHT22;27709;52.036;5.906;2022-08-01T13:02:46;23.90;93.10
42031;DHT22;27709;52.036;5.906;2022-08-01T13:05:12;23.90;93.10
42031;DHT22;27709;52.036;5.906;2022-08-01T13:10:09;24.10;92.80
42031;DHT22;27709;52.036;5.906;2022-08-01T13:12:35;24.20;92.70
42031;DHT22;27709;52.036;5.906;2022-08-01T13:17:43;24.20;92.80
42031;DHT22;27709;52.036;5.906;2022-08-01T13:20:09;24.20;92.40
42031;DHT22;27709;52.036;5.906;2022-08-01T13:22:36;24.20;92.20
42031;DHT22;27709;52.036;5.906;2022-08-01T13:25:13;24.40;92.00
42031;DHT22;27709;52.036;5.906;2022-08-01T13:27:39;24.50;91.00
42031;DHT22;27709;52.036;5.906;2022-08-01T13:30:16;24.60;91.50
42031;DHT22;27709;52.036;5.906;2022-08-01T13:32:43;24.60;90.80
42031;DHT22;27709;52.036;5.906;2022-08-01T13:35:12;24.60;90.20
42031;DHT22;27709;52.036;5.906;2022-08-01T13:37:40;24.90;89.50
42031;DHT22;27709;52.036;5.906;2022-08-01T13:40:10;25.10;88.60
42031;DHT22;27709;52.036;5.906;2022-08-01T13:42:36;25.00;88.50
42031;DHT22;27709;52.036;5.906;2022-08-01T13:45:08;24.90;89.60
42031;DHT22;27709;52.036;5.906;2022-08-01T13:47:35;24.90;89.60
42031;DHT22;27709;52.036;5.906;2022-08-01T13:50:01;24.80;89.60
42031;DHT22;27709;52.036;5.906;2022-08-01T13:52:28;24.70;88.00
42031;DHT22;27709;52.036;5.906;2022-08-01T13:54:53;24.90;87.00
42031;DHT22;27709;52.036;5.906;2022-08-01T13:57:19;25.00;88.00
42031;DHT22;27709;52.036;5.906;2022-08-01T13:59:47;25.20;88.10
42031;DHT22;27709;52.036;5.906;2022-08-01T14:02:12;25.20;88.00
42031;DHT22;27709;52.036;5.906;2022-08-01T14:04:38;25.10;87.70
42031;DHT22;27709;52.036;5.906;2022-08-01T14:07:04;25.00;87.00
42031;DHT22;27709;52.036;5.906;2022-08-01T14:09:29;25.00;86.80
42031;DHT22;27709;52.036;5.906;2022-08-01T14:11:55;25.00;87.10
42031;DHT22;27709;52.036;5.906;2022-08-01T14:14:20;24.90;86.40
42031;DHT22;27709;52.036;5.906;2022-08-01T14:16:46;24.80;85.90
42031;DHT22;27709;52.036;5.906;2022-08-01T14:19:12;24.60;87.60
42031;DHT22;27709;52.036;5.906;2022-08-01T14:21:37;24.50;87.80
42031;DHT22;27709;52.036;5.906;2022-08-01T14:24:03;24.60;86.50
42031;DHT22;27709;52.036;5.906;2022-08-01T14:26:29;24.50;85.80
42031;DHT22;27709;52.036;5.906;2022-08-01T14:28:54;24.60;84.20
42031;DHT22;27709;52.036;5.906;2022-08-01T14:31:44;24.70;81.70
42031;DHT22;27709;52.036;5.906;2022-08-01T14:34:10;24.80;79.90
42031;DHT22;27709;52.036;5.906;2022-08-01T14:36:39;25.00;79.10
42031;DHT22;27709;52.036;5.906;2022-08-01T14:39:05;25.10;77.00
42031;DHT22;27709;52.036;5.906;2022-08-01T14:41:30;25.10;76.10
42031;DHT22;27709;52.036;5.906;2022-08-01T14:44:17;25.10;77.70
42031;DHT22;27709;52.036;5.906;2022-08-01T14:47:10;24.90;77.30
42031;DHT22;27709;52.036;5.906;2022-08-01T14:49:39;24.70;77.70
42031;DHT22;27709;52.036;5.906;2022-08-01T14:52:06;24.60;78.70
42031;DHT22;27709;52.036;5.906;2022-08-01T14:54:32;24.40;80.60
42031;DHT22;27709;52.036;5.906;2022-08-01T14:56:58;24.20;80.70
42031;DHT22;27709;52.036;5.906;2022-08-01T14:59:27;24.20;81.10
42031;DHT22;27709;52.036;5.906;2022-08-01T15:01:52;24.20;80.00
42031;DHT22;27709;52.036;5.906;2022-08-01T15:04:50;24.20;79.60
42031;DHT22;27709;52.036;5.906;2022-08-01T15:07:19;24.40;79.70
42031;DHT22;27709;52.036;5.906;2022-08-01T15:09:44;24.40;79.60
42031;DHT22;27709;52.036;5.906;2022-08-01T15:12:11;24.40;79.60
42031;DHT22;27709;52.036;5.906;2022-08-01T15:14:37;24.40;80.30
42031;DHT22;27709;52.036;5.906;2022-08-01T15:17:25;24.50;79.40
42031;DHT22;27709;52.036;5.906;2022-08-01T15:19:53;24.50;78.10
42031;DHT22;27709;52.036;5.906;2022-08-01T15:22:20;24.60;75.60
42031;DHT22;27709;52.036;5.906;2022-08-01T15:24:46;24.60;73.90
42031;DHT22;27709;52.036;5.906;2022-08-01T15:27:12;24.60;75.00
42031;DHT22;27709;52.036;5.906;2022-08-01T15:29:38;24.60;75.40
42031;DHT22;27709;52.036;5.906;2022-08-01T15:32:05;24.70;76.20
42031;DHT22;27709;52.036;5.906;2022-08-01T15:34:32;24.60;74.80
42031;DHT22;27709;52.036;5.906;2022-08-01T15:36:58;24.60;74.20
42031;DHT22;27709;52.036;5.906;2022-08-01T15:39:24;24.60;73.80
42031;DHT22;27709;52.036;5.906;2022-08-01T15:41:50;24.50;72.50
42031;DHT22;27709;52.036;5.906;2022-08-01T15:44:16;24.50;73.50
42031;DHT22;27709;52.036;5.906;2022-08-01T15:46:48;24.50;72.60
42031;DHT22;27709;52.036;5.906;2022-08-01T15:49:14;24.40;73.10
42031;DHT22;27709;52.036;5.906;2022-08-01T15:51:40;24.40;72.80
42031;DHT22;27709;52.036;5.906;2022-08-01T15:54:10;24.40;73.20
42031;DHT22;27709;52.036;5.906;2022-08-01T15:56:40;24.30;73.00
42031;DHT22;27709;52.036;5.906;2022-08-01T15:59:05;24.30;72.70
42031;DHT22;27709;52.036;5.906;2022-08-01T16:01:31;24.40;72.80
42031;DHT22;27709;52.036;5.906;2022-08-01T16:03:57;24.20;73.40
42031;DHT22;27709;52.036;5.906;2022-08-01T16:06:24;24.10;72.00
42031;DHT22;27709;52.036;5.906;2022-08-01T16:08:50;24.10;72.30
42031;DHT22;27709;52.036;5.906;2022-08-01T16:11:17;24.00;71.60
42031;DHT22;27709;52.036;5.906;2022-08-01T16:13:44;23.90;71.80
42031;DHT22;27709;52.036;5.906;2022-08-01T16:16:11;23.80;71.30
42031;DHT22;27709;52.036;5.906;2022-08-01T16:18:36;23.80;71.70
42031;DHT22;27709;52.036;5.906;2022-08-01T16:21:03;23.70;72.60
42031;DHT22;27709;52.036;5.906;2022-08-01T16:23:29;23.60;73.10
42031;DHT22;27709;52.036;5.906;2022-08-01T16:25:55;23.50;73.60
42031;DHT22;27709;52.036;5.906;2022-08-01T16:28:21;23.50;73.20
42031;DHT22;27709;52.036;5.906;2022-08-01T16:30:46;23.40;73.70
42031;DHT22;27709;52.036;5.906;2022-08-01T16:33:12;23.40;73.30
42031;DHT22;27709;52.036;5.906;2022-08-01T16:35:38;23.30;71.90
42031;DHT22;27709;52.036;5.906;2022-08-01T16:38:04;23.30;71.60
42031;DHT22;27709;52.036;5.906;2022-08-01T16:40:31;23.30;71.50
42031;DHT22;27709;52.036;5.906;2022-08-01T16:42:56;23.10;72.20
42031;DHT22;27709;52.036;5.906;2022-08-01T16:45:22;23.00;71.90
42031;DHT22;27709;52.036;5.906;2022-08-01T16:47:48;22.90;71.50
42031;DHT22;27709;52.036;5.906;2022-08-01T16:50:14;22.80;70.80
42031;DHT22;27709;52.036;5.906;2022-08-01T16:52:39;22.70;70.40
42031;DHT22;27709;52.036;5.906;2022-08-01T16:55:09;22.60;71.10
42031;DHT22;27709;52.036;5.906;2022-08-01T16:57:35;22.60;70.50
42031;DHT22;27709;52.036;5.906;2022-08-01T17:00:12;22.50;71.10
42031;DHT22;27709;52.036;5.906;2022-08-01T17:02:39;22.50;72.10
42031;DHT22;27709;52.036;5.906;2022-08-01T17:05:06;22.40;72.00
42031;DHT22;27709;52.036;5.906;2022-08-01T17:07:32;22.30;71.90
42031;DHT22;27709;52.036;5.906;2022-08-01T17:09:57;22.30;71.70
42031;DHT22;27709;52.036;5.906;2022-08-01T17:12:28;22.20;71.50
42031;DHT22;27709;52.036;5.906;2022-08-01T17:14:54;22.20;71.80
42031;DHT22;27709;52.036;5.906;2022-08-01T17:17:22;22.10;72.00
42031;DHT22;27709;52.036;5.906;2022-08-01T17:19:51;22.00;72.60
42031;DHT22;27709;52.036;5.906;2022-08-01T17:22:16;22.00;72.20
42031;DHT22;27709;52.036;5.906;2022-08-01T17:24:42;21.80;72.70